Terminal Aerodrome Forecast
Issued by NWS

Home | Current Version | Previous Version | Text Only | Print | Product List | Glossary On
Versions: 1 2 3 4 5 6 7 8 9 10 11 12 13 14 15 16 17 18 19 20 21 22 23 24 25 26 27
000
FTUS43 KAPX 041343 AAA
TAFAPN
TAF AMD
KAPN 041343Z 0414/0512 11006KT P6SM VCSH OVC006
     FM041800 11010KT P6SM BKN015 OVC060
     FM042100 09009KT P6SM BKN035
     FM050100 12005KT 5SM -SHRA OVC050
     FM050300 12003KT P6SM BKN050
     FM050900 00000KT 2SM BR SCT002=

USA.gov is the U.S. government's official web portal to all federal, state and local government web resources and services.